sensor_id;sensor_type;location;lat;lon;timestamp;pressure;altitude;pressure_sealevel;temperature;humidity
68107;BME280;54892;47.488;19.026;2023-04-08T00:01:35;100189.31;;;4.14;90.88
68107;BME280;54892;47.488;19.026;2023-04-08T00:04:38;100187.28;;;4.16;91.75
68107;BME280;54892;47.488;19.026;2023-04-08T00:07:41;100188.06;;;4.23;91.72
68107;BME280;54892;47.488;19.026;2023-04-08T00:10:44;100186.91;;;4.12;91.36
68107;BME280;54892;47.488;19.026;2023-04-08T00:13:47;100194.09;;;4.23;90.52
68107;BME280;54892;47.488;19.026;2023-04-08T00:16:51;100192.16;;;4.12;90.55
68107;BME280;54892;47.488;19.026;2023-04-08T00:19:54;100189.16;;;4.02;91.82
68107;BME280;54892;47.488;19.026;2023-04-08T00:22:57;100190.59;;;3.91;92.27
68107;BME280;54892;47.488;19.026;2023-04-08T00:26:00;100194.75;;;4.05;91.70
68107;BME280;54892;47.488;19.026;2023-04-08T00:29:03;100194.41;;;3.95;92.13
68107;BME280;54892;47.488;19.026;2023-04-08T00:32:08;100196.00;;;3.96;92.46
68107;BME280;54892;47.488;19.026;2023-04-08T00:35:11;100196.56;;;4.11;92.23
68107;BME280;54892;47.488;19.026;2023-04-08T00:38:14;100192.34;;;4.04;92.07
68107;BME280;54892;47.488;19.026;2023-04-08T00:41:17;100188.38;;;3.94;92.06
68107;BME280;54892;47.488;19.026;2023-04-08T00:44:20;100196.37;;;4.00;92.09
68107;BME280;54892;47.488;19.026;2023-04-08T00:47:24;100192.38;;;3.97;91.98
68107;BME280;54892;47.488;19.026;2023-04-08T00:50:28;100191.12;;;4.06;91.13
68107;BME280;54892;47.488;19.026;2023-04-08T00:53:30;100190.19;;;3.94;90.91
68107;BME280;54892;47.488;19.026;2023-04-08T00:56:34;100195.81;;;3.91;91.17
68107;BME280;54892;47.488;19.026;2023-04-08T00:59:37;100199.97;;;4.05;91.50
68107;BME280;54892;47.488;19.026;2023-04-08T01:02:44;100196.97;;;4.02;91.40
68107;BME280;54892;47.488;19.026;2023-04-08T01:05:49;100194.78;;;3.99;92.08
68107;BME280;54892;47.488;19.026;2023-04-08T01:08:55;100198.78;;;4.08;92.66
68107;BME280;54892;47.488;19.026;2023-04-08T01:12:00;100190.13;;;4.07;91.42
68107;BME280;54892;47.488;19.026;2023-04-08T01:15:06;100192.97;;;3.99;91.73
68107;BME280;54892;47.488;19.026;2023-04-08T01:18:11;100194.41;;;3.95;91.34
68107;BME280;54892;47.488;19.026;2023-04-08T01:21:15;100200.63;;;3.94;92.46
68107;BME280;54892;47.488;19.026;2023-04-08T01:24:19;100193.78;;;3.93;93.23
68107;BME280;54892;47.488;19.026;2023-04-08T01:27:26;100200.38;;;4.09;91.14
68107;BME280;54892;47.488;19.026;2023-04-08T01:30:29;100198.81;;;4.01;92.29
68107;BME280;54892;47.488;19.026;2023-04-08T01:33:33;100195.00;;;3.97;92.17
68107;BME280;54892;47.488;19.026;2023-04-08T01:36:37;100187.38;;;3.95;93.06
68107;BME280;54892;47.488;19.026;2023-04-08T01:39:40;100189.19;;;3.88;93.03
68107;BME280;54892;47.488;19.026;2023-04-08T01:42:45;100189.78;;;3.90;93.48
68107;BME280;54892;47.488;19.026;2023-04-08T01:45:49;100191.19;;;3.93;94.05
68107;BME280;54892;47.488;19.026;2023-04-08T01:48:55;100196.56;;;4.05;94.11
68107;BME280;54892;47.488;19.026;2023-04-08T01:51:59;100197.59;;;4.04;94.00
68107;BME280;54892;47.488;19.026;2023-04-08T01:55:02;100190.78;;;3.96;94.59
68107;BME280;54892;47.488;19.026;2023-04-08T01:58:06;100191.78;;;3.95;93.89
68107;BME280;54892;47.488;19.026;2023-04-08T02:01:11;100187.56;;;3.94;94.22
68107;BME280;54892;47.488;19.026;2023-04-08T02:04:15;100188.19;;;3.89;94.65
68107;BME280;54892;47.488;19.026;2023-04-08T02:07:18;100182.16;;;3.82;95.29
68107;BME280;54892;47.488;19.026;2023-04-08T02:10:21;100196.44;;;3.86;94.29
68107;BME280;54892;47.488;19.026;2023-04-08T02:13:25;100188.00;;;3.77;94.99
68107;BME280;54892;47.488;19.026;2023-04-08T02:16:29;100192.06;;;3.66;96.04
68107;BME280;54892;47.488;19.026;2023-04-08T02:19:35;100190.63;;;3.77;95.76
68107;BME280;54892;47.488;19.026;2023-04-08T02:22:42;100187.84;;;3.72;95.98
68107;BME280;54892;47.488;19.026;2023-04-08T02:25:46;100189.44;;;3.66;95.66
68107;BME280;54892;47.488;19.026;2023-04-08T02:28:51;100187.66;;;3.67;96.10
68107;BME280;54892;47.488;19.026;2023-04-08T02:31:56;100186.03;;;3.66;96.52
68107;BME280;54892;47.488;19.026;2023-04-08T02:35:00;100190.66;;;3.71;96.08
68107;BME280;54892;47.488;19.026;2023-04-08T02:38:04;100187.25;;;3.70;94.23
68107;BME280;54892;47.488;19.026;2023-04-08T02:41:07;100179.78;;;3.74;95.24
68107;BME280;54892;47.488;19.026;2023-04-08T02:44:12;100177.41;;;3.72;95.15
68107;BME280;54892;47.488;19.026;2023-04-08T02:47:14;100183.19;;;3.74;95.73
68107;BME280;54892;47.488;19.026;2023-04-08T02:50:17;100189.19;;;3.88;94.45
68107;BME280;54892;47.488;19.026;2023-04-08T02:53:20;100182.78;;;3.77;94.46
68107;BME280;54892;47.488;19.026;2023-04-08T02:56:23;100182.03;;;3.70;94.20
68107;BME280;54892;47.488;19.026;2023-04-08T02:59:28;100177.97;;;3.74;93.20
68107;BME280;54892;47.488;19.026;2023-04-08T03:02:31;100189.44;;;3.73;93.40
68107;BME280;54892;47.488;19.026;2023-04-08T03:05:37;100189.84;;;3.77;93.65
68107;BME280;54892;47.488;19.026;2023-04-08T03:08:40;100177.81;;;3.69;93.47
68107;BME280;54892;47.488;19.026;2023-04-08T03:11:43;100183.03;;;3.69;93.78
68107;BME280;54892;47.488;19.026;2023-04-08T03:14:54;100187.41;;;3.75;93.46
68107;BME280;54892;47.488;19.026;2023-04-08T03:17:57;100193.81;;;3.86;93.16
68107;BME280;54892;47.488;19.026;2023-04-08T03:21:00;100189.03;;;3.76;92.81
68107;BME280;54892;47.488;19.026;2023-04-08T03:24:04;100194.69;;;3.73;93.62
68107;BME280;54892;47.488;19.026;2023-04-08T03:27:07;100192.66;;;3.69;94.08
68107;BME280;54892;47.488;19.026;2023-04-08T03:30:11;100199.28;;;3.71;94.07
68107;BME280;54892;47.488;19.026;2023-04-08T03:33:14;100197.47;;;3.72;93.93
68107;BME280;54892;47.488;19.026;2023-04-08T03:36:17;100205.53;;;3.70;94.15
68107;BME280;54892;47.488;19.026;2023-04-08T03:39:20;100199.69;;;3.68;94.84
68107;BME280;54892;47.488;19.026;2023-04-08T03:42:23;100205.69;;;3.75;94.38
68107;BME280;54892;47.488;19.026;2023-04-08T03:45:28;100205.88;;;3.87;93.61
68107;BME280;54892;47.488;19.026;2023-04-08T03:48:31;100200.31;;;3.70;95.11
68107;BME280;54892;47.488;19.026;2023-04-08T03:51:34;100202.50;;;3.73;95.63
68107;BME280;54892;47.488;19.026;2023-04-08T03:54:37;100209.50;;;3.79;96.38
68107;BME280;54892;47.488;19.026;2023-04-08T03:57:40;100221.13;;;3.90;96.39
68107;BME280;54892;47.488;19.026;2023-04-08T04:00:44;100217.31;;;3.93;94.33
68107;BME280;54892;47.488;19.026;2023-04-08T04:03:47;100221.13;;;3.90;93.73
68107;BME280;54892;47.488;19.026;2023-04-08T04:06:51;100227.37;;;3.83;95.09
68107;BME280;54892;47.488;19.026;2023-04-08T04:09:54;100222.16;;;3.83;95.07
68107;BME280;54892;47.488;19.026;2023-04-08T04:12:57;100226.75;;;3.87;95.42
68107;BME280;54892;47.488;19.026;2023-04-08T04:16:01;100236.81;;;3.84;95.44
68107;BME280;54892;47.488;19.026;2023-04-08T04:19:04;100228.16;;;3.90;95.21
68107;BME280;54892;47.488;19.026;2023-04-08T04:22:07;100235.41;;;3.94;95.10
68107;BME280;54892;47.488;19.026;2023-04-08T04:25:10;100234.78;;;3.99;94.43
68107;BME280;54892;47.488;19.026;2023-04-08T04:28:13;100240.03;;;3.86;94.77
68107;BME280;54892;47.488;19.026;2023-04-08T04:31:20;100237.22;;;3.80;95.16
68107;BME280;54892;47.488;19.026;2023-04-08T04:34:24;100236.41;;;3.87;94.45
68107;BME280;54892;47.488;19.026;2023-04-08T04:37:26;100240.19;;;3.91;93.97
68107;BME280;54892;47.488;19.026;2023-04-08T04:40:30;100238.78;;;3.95;94.31
68107;BME280;54892;47.488;19.026;2023-04-08T04:43:33;100242.81;;;3.84;95.10
68107;BME280;54892;47.488;19.026;2023-04-08T04:46:37;100237.44;;;3.79;94.37
68107;BME280;54892;47.488;19.026;2023-04-08T04:49:40;100239.63;;;3.82;93.99
68107;BME280;54892;47.488;19.026;2023-04-08T04:52:43;100245.06;;;3.74;93.45
68107;BME280;54892;47.488;19.026;2023-04-08T04:55:46;100241.84;;;3.72;94.25
68107;BME280;54892;47.488;19.026;2023-04-08T04:58:50;100245.69;;;3.62;95.44
68107;BME280;54892;47.488;19.026;2023-04-08T05:01:54;100251.31;;;3.66;95.11
68107;BME280;54892;47.488;19.026;2023-04-08T05:04:58;100254.13;;;3.58;94.69
68107;BME280;54892;47.488;19.026;2023-04-08T05:08:01;100256.12;;;3.56;94.23
68107;BME280;54892;47.488;19.026;2023-04-08T05:11:07;100242.88;;;3.64;94.99
68107;BME280;54892;47.488;19.026;2023-04-08T05:14:10;100250.91;;;3.69;94.71
68107;BME280;54892;47.488;19.026;2023-04-08T05:17:15;100255.28;;;3.75;95.16
68107;BME280;54892;47.488;19.026;2023-04-08T05:20:18;100265.53;;;3.90;93.09
68107;BME280;54892;47.488;19.026;2023-04-08T05:23:21;100257.31;;;3.73;94.21
68107;BME280;54892;47.488;19.026;2023-04-08T05:26:24;100260.31;;;3.77;95.02
68107;BME280;54892;47.488;19.026;2023-04-08T05:29:26;100266.12;;;3.86;95.49
68107;BME280;54892;47.488;19.026;2023-04-08T05:32:31;100262.09;;;3.90;95.52
68107;BME280;54892;47.488;19.026;2023-04-08T05:35:34;100273.75;;;3.87;95.30
68107;BME280;54892;47.488;19.026;2023-04-08T05:38:37;100282.19;;;3.89;94.07
68107;BME280;54892;47.488;19.026;2023-04-08T05:41:41;100274.97;;;3.91;93.74
68107;BME280;54892;47.488;19.026;2023-04-08T05:44:44;100281.41;;;3.89;94.39
68107;BME280;54892;47.488;19.026;2023-04-08T05:47:48;100280.38;;;3.96;92.97
68107;BME280;54892;47.488;19.026;2023-04-08T05:50:51;100289.03;;;3.90;93.50
68107;BME280;54892;47.488;19.026;2023-04-08T05:53:54;100288.81;;;3.99;94.15
68107;BME280;54892;47.488;19.026;2023-04-08T05:56:57;100280.38;;;3.90;95.36
68107;BME280;54892;47.488;19.026;2023-04-08T06:00:00;100285.00;;;4.01;94.59
68107;BME280;54892;47.488;19.026;2023-04-08T06:03:04;100286.62;;;3.89;94.71
68107;BME280;54892;47.488;19.026;2023-04-08T06:06:08;100282.97;;;3.90;94.50
68107;BME280;54892;47.488;19.026;2023-04-08T06:09:12;100300.25;;;3.91;95.19
68107;BME280;54892;47.488;19.026;2023-04-08T06:12:15;100300.19;;;6.84;100.00
68107;BME280;54892;47.488;19.026;2023-04-08T06:15:19;100293.88;;;8.47;99.85
68107;BME280;54892;47.488;19.026;2023-04-08T06:18:24;100302.63;;;8.12;85.06
68107;BME280;54892;47.488;19.026;2023-04-08T06:21:27;100299.38;;;6.53;81.33
68107;BME280;54892;47.488;19.026;2023-04-08T06:24:30;100305.03;;;5.69;85.65
68107;BME280;54892;47.488;19.026;2023-04-08T06:27:33;100306.47;;;5.08;87.54
68107;BME280;54892;47.488;19.026;2023-04-08T06:30:36;100313.16;;;4.58;89.87
68107;BME280;54892;47.488;19.026;2023-04-08T06:33:40;100311.59;;;4.50;91.62
68107;BME280;54892;47.488;19.026;2023-04-08T06:36:43;100314.00;;;4.45;91.98
68107;BME280;54892;47.488;19.026;2023-04-08T06:39:46;100319.91;;;4.27;92.77
68107;BME280;54892;47.488;19.026;2023-04-08T06:42:49;100318.47;;;4.31;92.61
68107;BME280;54892;47.488;19.026;2023-04-08T06:45:52;100318.66;;;4.30;91.64
68107;BME280;54892;47.488;19.026;2023-04-08T06:48:57;100319.91;;;4.20;92.55
68107;BME280;54892;47.488;19.026;2023-04-08T06:52:00;100327.56;;;4.08;93.99
68107;BME280;54892;47.488;19.026;2023-04-08T06:55:03;100326.34;;;4.18;93.50
68107;BME280;54892;47.488;19.026;2023-04-08T06:58:07;100327.38;;;4.17;94.41
68107;BME280;54892;47.488;19.026;2023-04-08T07:01:10;100337.22;;;4.15;93.52
68107;BME280;54892;47.488;19.026;2023-04-08T07:04:15;100332.19;;;4.06;93.41
68107;BME280;54892;47.488;19.026;2023-04-08T07:07:18;100333.19;;;4.19;93.51
68107;BME280;54892;47.488;19.026;2023-04-08T07:10:21;100333.41;;;4.04;94.03
68107;BME280;54892;47.488;19.026;2023-04-08T07:13:24;100329.00;;;4.04;93.68
68107;BME280;54892;47.488;19.026;2023-04-08T07:16:28;100328.78;;;4.06;95.13
68107;BME280;54892;47.488;19.026;2023-04-08T07:19:32;100336.41;;;4.07;95.24
68107;BME280;54892;47.488;19.026;2023-04-08T07:22:35;100340.62;;;4.08;95.32
68107;BME280;54892;47.488;19.026;2023-04-08T07:25:38;100346.47;;;4.04;94.68
68107;BME280;54892;47.488;19.026;2023-04-08T07:28:41;100343.44;;;4.14;95.64
68107;BME280;54892;47.488;19.026;2023-04-08T07:31:45;100358.91;;;4.15;94.17
68107;BME280;54892;47.488;19.026;2023-04-08T07:34:49;100347.03;;;4.19;94.37
68107;BME280;54892;47.488;19.026;2023-04-08T07:37:52;100360.91;;;4.06;95.36
68107;BME280;54892;47.488;19.026;2023-04-08T07:40:55;100355.28;;;4.16;94.65
68107;BME280;54892;47.488;19.026;2023-04-08T07:43:58;100361.72;;;4.07;95.32
68107;BME280;54892;47.488;19.026;2023-04-08T07:47:02;100371.38;;;4.06;94.99
68107;BME280;54892;47.488;19.026;2023-04-08T07:50:07;100378.19;;;4.07;94.99
68107;BME280;54892;47.488;19.026;2023-04-08T07:53:10;100380.63;;;4.02;94.34
68107;BME280;54892;47.488;19.026;2023-04-08T07:56:13;100377.19;;;3.95;95.17
68107;BME280;54892;47.488;19.026;2023-04-08T07:59:18;100387.66;;;3.81;96.01
68107;BME280;54892;47.488;19.026;2023-04-08T08:02:21;100381.44;;;3.96;95.71
68107;BME280;54892;47.488;19.026;2023-04-08T08:05:25;100377.03;;;3.96;94.48
68107;BME280;54892;47.488;19.026;2023-04-08T08:08:28;100376.81;;;3.98;95.75
68107;BME280;54892;47.488;19.026;2023-04-08T08:11:34;100383.03;;;4.10;95.58
68107;BME280;54892;47.488;19.026;2023-04-08T08:14:37;100379.78;;;4.22;95.04
68107;BME280;54892;47.488;19.026;2023-04-08T08:17:40;100386.63;;;4.23;95.75
68107;BME280;54892;47.488;19.026;2023-04-08T08:20:44;100391.81;;;4.36;94.71
68107;BME280;54892;47.488;19.026;2023-04-08T08:23:47;100387.44;;;4.23;94.33
68107;BME280;54892;47.488;19.026;2023-04-08T08:26:50;100393.28;;;4.25;95.07
68107;BME280;54892;47.488;19.026;2023-04-08T08:29:53;100386.22;;;4.26;95.58
68107;BME280;54892;47.488;19.026;2023-04-08T08:32:57;100401.28;;;4.51;92.25
68107;BME280;54892;47.488;19.026;2023-04-08T08:36:02;100405.31;;;4.33;92.82
68107;BME280;54892;47.488;19.026;2023-04-08T08:39:06;100406.94;;;4.28;93.62
68107;BME280;54892;47.488;19.026;2023-04-08T08:42:17;100401.91;;;4.19;95.32
68107;BME280;54892;47.488;19.026;2023-04-08T08:45:20;100401.09;;;4.39;92.96
68107;BME280;54892;47.488;19.026;2023-04-08T08:48:23;100408.72;;;4.34;94.23
68107;BME280;54892;47.488;19.026;2023-04-08T08:51:27;100403.47;;;4.40;93.42
68107;BME280;54892;47.488;19.026;2023-04-08T08:54:30;100407.94;;;4.33;94.23
68107;BME280;54892;47.488;19.026;2023-04-08T08:57:33;100410.72;;;4.45;92.54
68107;BME280;54892;47.488;19.026;2023-04-08T09:00:36;100417.78;;;4.38;92.54
68107;BME280;54892;47.488;19.026;2023-04-08T09:03:40;100421.78;;;4.34;94.08
68107;BME280;54892;47.488;19.026;2023-04-08T09:06:45;100423.59;;;4.47;94.26
68107;BME280;54892;47.488;19.026;2023-04-08T09:09:49;100419.34;;;4.59;94.29
68107;BME280;54892;47.488;19.026;2023-04-08T09:12:53;100421.75;;;4.54;92.49
68107;BME280;54892;47.488;19.026;2023-04-08T09:16:00;100432.81;;;4.56;92.53
68107;BME280;54892;47.488;19.026;2023-04-08T09:19:07;100439.28;;;4.47;91.95
68107;BME280;54892;47.488;19.026;2023-04-08T09:22:12;100441.31;;;4.31;93.16
68107;BME280;54892;47.488;19.026;2023-04-08T09:25:21;100434.47;;;4.37;92.54
68107;BME280;54892;47.488;19.026;2023-04-08T09:28:24;100440.28;;;4.52;93.05
68107;BME280;54892;47.488;19.026;2023-04-08T09:31:27;100457.16;;;4.50;92.66
68107;BME280;54892;47.488;19.026;2023-04-08T09:34:31;100453.75;;;4.42;91.84
68107;BME280;54892;47.488;19.026;2023-04-08T09:37:36;100460.37;;;4.52;93.52
68107;BME280;54892;47.488;19.026;2023-04-08T09:40:39;100452.72;;;4.57;91.36
68107;BME280;54892;47.488;19.026;2023-04-08T09:43:43;100455.72;;;4.61;92.04
68107;BME280;54892;47.488;19.026;2023-04-08T09:46:53;100455.31;;;4.64;91.97
68107;BME280;54892;47.488;19.026;2023-04-08T09:50:00;100457.91;;;4.77;92.63
68107;BME280;54892;47.488;19.026;2023-04-08T09:53:08;100456.28;;;4.76;93.42
68107;BME280;54892;47.488;19.026;2023-04-08T09:56:11;100463.13;;;4.77;92.16
68107;BME280;54892;47.488;19.026;2023-04-08T09:59:16;100455.31;;;4.70;91.63
68107;BME280;54892;47.488;19.026;2023-04-08T10:02:23;100458.31;;;4.87;91.47
68107;BME280;54892;47.488;19.026;2023-04-08T10:05:27;100464.94;;;4.83;92.46
68107;BME280;54892;47.488;19.026;2023-04-08T10:08:33;100462.50;;;4.95;91.78
68107;BME280;54892;47.488;19.026;2023-04-08T10:11:36;100464.94;;;4.90;91.57
68107;BME280;54892;47.488;19.026;2023-04-08T10:14:40;100464.47;;;5.07;90.41
68107;BME280;54892;47.488;19.026;2023-04-08T10:17:43;100465.91;;;4.96;90.13
68107;BME280;54892;47.488;19.026;2023-04-08T10:20:46;100463.31;;;4.89;87.65
68107;BME280;54892;47.488;19.026;2023-04-08T10:23:54;100467.75;;;4.75;88.80
68107;BME280;54892;47.488;19.026;2023-04-08T10:27:02;100461.53;;;4.69;89.58
68107;BME280;54892;47.488;19.026;2023-04-08T10:33:34;100466.16;;;4.67;88.84
68107;BME280;54892;47.488;19.026;2023-04-08T10:36:39;100462.19;;;4.58;88.34
68107;BME280;54892;47.488;19.026;2023-04-08T10:39:45;100464.97;;;4.70;88.69
68107;BME280;54892;47.488;19.026;2023-04-08T10:42:53;100456.50;;;4.75;90.23
68107;BME280;54892;47.488;19.026;2023-04-08T10:45:55;100460.13;;;4.73;87.97
68107;BME280;54892;47.488;19.026;2023-04-08T10:48:58;100460.34;;;4.79;87.86
68107;BME280;54892;47.488;19.026;2023-04-08T10:52:05;100467.78;;;4.62;89.92
68107;BME280;54892;47.488;19.026;2023-04-08T10:55:09;100466.16;;;4.81;89.77
68107;BME280;54892;47.488;19.026;2023-04-08T10:58:12;100465.72;;;4.97;89.78
68107;BME280;54892;47.488;19.026;2023-04-08T11:01:16;100467.53;;;4.90;89.67
68107;BME280;54892;47.488;19.026;2023-04-08T11:04:19;100468.69;;;5.08;87.74
68107;BME280;54892;47.488;19.026;2023-04-08T11:07:24;100469.34;;;4.83;88.43
68107;BME280;54892;47.488;19.026;2023-04-08T11:10:29;100470.16;;;4.90;88.58
68107;BME280;54892;47.488;19.026;2023-04-08T11:13:32;100465.53;;;4.92;87.72
68107;BME280;54892;47.488;19.026;2023-04-08T11:16:36;100471.16;;;4.96;85.87
68107;BME280;54892;47.488;19.026;2023-04-08T11:19:39;100461.53;;;4.76;88.59
68107;BME280;54892;47.488;19.026;2023-04-08T11:22:42;100465.72;;;4.84;89.82
68107;BME280;54892;47.488;19.026;2023-04-08T11:25:47;100466.12;;;4.94;89.48
68107;BME280;54892;47.488;19.026;2023-04-08T11:28:50;100464.47;;;5.07;88.88
68107;BME280;54892;47.488;19.026;2023-04-08T11:31:53;100467.31;;;4.98;88.33
68107;BME280;54892;47.488;19.026;2023-04-08T11:34:58;100472.53;;;4.98;88.25
68107;BME280;54892;47.488;19.026;2023-04-08T11:38:03;100469.31;;;5.10;87.66
68107;BME280;54892;47.488;19.026;2023-04-08T11:41:07;100470.47;;;5.14;89.37
68107;BME280;54892;47.488;19.026;2023-04-08T11:44:12;100472.84;;;5.29;88.30
68107;BME280;54892;47.488;19.026;2023-04-08T11:47:15;100474.87;;;5.27;86.78
68107;BME280;54892;47.488;19.026;2023-04-08T11:50:24;100472.41;;;5.39;86.74
68107;BME280;54892;47.488;19.026;2023-04-08T11:53:28;100469.84;;;5.25;86.78
68107;BME280;54892;47.488;19.026;2023-04-08T11:56:42;100474.41;;;5.37;84.98
68107;BME280;54892;47.488;19.026;2023-04-08T11:59:46;100469.19;;;5.37;87.08
68107;BME280;54892;47.488;19.026;2023-04-08T12:02:49;100472.06;;;5.28;86.86
68107;BME280;54892;47.488;19.026;2023-04-08T12:05:53;100471.22;;;5.28;86.90
68107;BME280;54892;47.488;19.026;2023-04-08T12:08:56;100463.97;;;5.30;88.07
68107;BME280;54892;47.488;19.026;2023-04-08T12:12:01;100460.78;;;5.28;89.05
68107;BME280;54892;47.488;19.026;2023-04-08T12:15:05;100468.38;;;5.43;88.48
68107;BME280;54892;47.488;19.026;2023-04-08T12:18:08;100467.41;;;5.69;87.26
68107;BME280;54892;47.488;19.026;2023-04-08T12:21:11;100472.94;;;5.54;86.58
68107;BME280;54892;47.488;19.026;2023-04-08T12:24:14;100468.94;;;5.52;84.78
68107;BME280;54892;47.488;19.026;2023-04-08T12:27:18;100461.25;;;5.50;86.15
68107;BME280;54892;47.488;19.026;2023-04-08T12:30:21;100458.66;;;5.50;85.55
68107;BME280;54892;47.488;19.026;2023-04-08T12:33:24;100461.94;;;5.39;84.05
68107;BME280;54892;47.488;19.026;2023-04-08T12:36:27;100471.13;;;5.48;86.10
68107;BME280;54892;47.488;19.026;2023-04-08T12:39:31;100463.06;;;5.56;84.33
68107;BME280;54892;47.488;19.026;2023-04-08T12:42:36;100458.97;;;5.67;86.67
68107;BME280;54892;47.488;19.026;2023-04-08T12:45:38;100466.78;;;5.74;83.43
68107;BME280;54892;47.488;19.026;2023-04-08T12:48:41;100466.69;;;5.87;82.44
68107;BME280;54892;47.488;19.026;2023-04-08T12:51:45;100463.31;;;5.80;83.26
68107;BME280;54892;47.488;19.026;2023-04-08T12:54:48;100466.84;;;5.92;80.47
68107;BME280;54892;47.488;19.026;2023-04-08T12:57:52;100462.88;;;5.83;81.91
68107;BME280;54892;47.488;19.026;2023-04-08T13:00:55;100467.56;;;5.74;83.33
68107;BME280;54892;47.488;19.026;2023-04-08T13:03:58;100466.94;;;5.79;84.81
68107;BME280;54892;47.488;19.026;2023-04-08T13:07:01;100465.28;;;5.91;83.63
68107;BME280;54892;47.488;19.026;2023-04-08T13:10:05;100466.44;;;5.95;85.22
68107;BME280;54892;47.488;19.026;2023-04-08T13:13:10;100463.84;;;5.89;81.17
68107;BME280;54892;47.488;19.026;2023-04-08T13:16:14;100462.00;;;6.03;81.41
68107;BME280;54892;47.488;19.026;2023-04-08T13:19:18;100463.72;;;5.84;81.06
68107;BME280;54892;47.488;19.026;2023-04-08T13:22:21;100461.88;;;5.84;82.38
68107;BME280;54892;47.488;19.026;2023-04-08T13:25:24;100453.69;;;5.74;82.82
68107;BME280;54892;47.488;19.026;2023-04-08T13:28:28;100459.66;;;5.81;84.32
68107;BME280;54892;47.488;19.026;2023-04-08T13:31:31;100454.56;;;5.61;84.76
68107;BME280;54892;47.488;19.026;2023-04-08T13:34:35;100456.81;;;5.57;85.82
68107;BME280;54892;47.488;19.026;2023-04-08T13:37:38;100454.94;;;5.64;86.64
68107;BME280;54892;47.488;19.026;2023-04-08T13:40:42;100453.19;;;5.90;85.35
68107;BME280;54892;47.488;19.026;2023-04-08T13:43:47;100452.03;;;5.79;87.19
68107;BME280;54892;47.488;19.026;2023-04-08T13:46:51;100449.97;;;5.88;87.35
68107;BME280;54892;47.488;19.026;2023-04-08T13:49:54;100454.34;;;5.94;85.52
68107;BME280;54892;47.488;19.026;2023-04-08T13:52:57;100452.72;;;6.00;85.92
68107;BME280;54892;47.488;19.026;2023-04-08T13:56:00;100450.28;;;5.99;85.73
68107;BME280;54892;47.488;19.026;2023-04-08T13:59:04;100450.81;;;6.14;83.39
68107;BME280;54892;47.488;19.026;2023-04-08T14:02:07;100452.09;;;6.05;80.94
68107;BME280;54892;47.488;19.026;2023-04-08T14:05:10;100458.72;;;6.07;82.15
68107;BME280;54892;47.488;19.026;2023-04-08T14:08:13;100453.41;;;6.14;82.77
68107;BME280;54892;47.488;19.026;2023-04-08T14:11:16;100449.25;;;6.32;81.03
68107;BME280;54892;47.488;19.026;2023-04-08T14:14:20;100449.50;;;6.23;81.28
68107;BME280;54892;47.488;19.026;2023-04-08T14:17:23;100453.97;;;6.23;78.76
68107;BME280;54892;47.488;19.026;2023-04-08T14:20:27;100452.28;;;6.29;79.61
68107;BME280;54892;47.488;19.026;2023-04-08T14:23:30;100455.28;;;6.32;79.03
68107;BME280;54892;47.488;19.026;2023-04-08T14:26:33;100458.84;;;6.19;79.49
68107;BME280;54892;47.488;19.026;2023-04-08T14:29:38;100455.34;;;6.25;78.62
68107;BME280;54892;47.488;19.026;2023-04-08T14:32:41;100462.94;;;6.08;79.99
68107;BME280;54892;47.488;19.026;2023-04-08T14:35:44;100454.84;;;6.10;81.86
68107;BME280;54892;47.488;19.026;2023-04-08T14:38:48;100463.06;;;6.20;80.92
68107;BME280;54892;47.488;19.026;2023-04-08T14:41:51;100457.06;;;6.13;80.51
68107;BME280;54892;47.488;19.026;2023-04-08T14:44:55;100461.06;;;6.16;80.47
68107;BME280;54892;47.488;19.026;2023-04-08T14:47:58;100456.94;;;6.27;81.48
68107;BME280;54892;47.488;19.026;2023-04-08T14:51:02;100458.88;;;6.38;77.77
68107;BME280;54892;47.488;19.026;2023-04-08T14:54:06;100459.25;;;6.16;80.68
68107;BME280;54892;47.488;19.026;2023-04-08T14:57:08;100460.37;;;6.02;80.17
68107;BME280;54892;47.488;19.026;2023-04-08T15:00:13;100458.72;;;6.07;79.62
68107;BME280;54892;47.488;19.026;2023-04-08T15:03:16;100457.81;;;5.88;82.03
68107;BME280;54892;47.488;19.026;2023-04-08T15:06:19;100460.03;;;5.91;82.63
68107;BME280;54892;47.488;19.026;2023-04-08T15:09:23;100462.50;;;5.79;83.13
68107;BME280;54892;47.488;19.026;2023-04-08T15:12:26;100455.19;;;5.56;84.42
68107;BME280;54892;47.488;19.026;2023-04-08T15:15:31;100459.66;;;5.49;81.50
68107;BME280;54892;47.488;19.026;2023-04-08T15:18:34;100459.66;;;5.49;82.11
68107;BME280;54892;47.488;19.026;2023-04-08T15:21:38;100456.41;;;5.60;81.78
68107;BME280;54892;47.488;19.026;2023-04-08T15:24:41;100462.41;;;5.61;81.12
68107;BME280;54892;47.488;19.026;2023-04-08T15:27:44;100455.13;;;5.70;81.02
68107;BME280;54892;47.488;19.026;2023-04-08T15:30:49;100456.91;;;5.76;79.26
68107;BME280;54892;47.488;19.026;2023-04-08T15:33:52;100461.00;;;5.65;81.37
68107;BME280;54892;47.488;19.026;2023-04-08T15:36:55;100463.72;;;5.77;80.97
68107;BME280;54892;47.488;19.026;2023-04-08T15:39:58;100467.34;;;5.83;80.15
68107;BME280;54892;47.488;19.026;2023-04-08T15:43:02;100468.75;;;5.78;79.90
68107;BME280;54892;47.488;19.026;2023-04-08T15:46:06;100472.94;;;5.86;78.17
68107;BME280;54892;47.488;19.026;2023-04-08T15:49:09;100473.75;;;5.87;80.25
68107;BME280;54892;47.488;19.026;2023-04-08T15:52:12;100469.56;;;5.79;78.60
68107;BME280;54892;47.488;19.026;2023-04-08T15:55:15;100477.03;;;5.75;80.21
68107;BME280;54892;47.488;19.026;2023-04-08T15:58:19;100476.25;;;5.75;81.16
68107;BME280;54892;47.488;19.026;2023-04-08T16:01:23;100473.78;;;5.80;81.53
68107;BME280;54892;47.488;19.026;2023-04-08T16:04:27;100478.91;;;5.68;81.64